Main page
METAR-TAF:

METAR-TAF

Airports :

Koksijde Air Base

Koksijde, Belgium

latitude: 51-05N, longitude: 002-39E, elevation: 4 m

Current weather observation

The report was made 6 hours and 56 minutes ago, at 14:25 UTC
Wind 10 kt from the South/Southwest
Temperature 22°C
Humidity 60%
Pressure 1013 hPa
Visibility 10 km or more
Few clouds at a height of 2000 ft
Scattered clouds at a height of 3500 ft
Broken clouds at a height of 22000 ft

METAR: EBFN 201425Z 20010KT 9999 FEW020 SCT035 BKN220 22/14 Q1013 BLU BLU

Time: 23:21 (21:21 UTC)

Forecast

The report was made 9 hours and 40 minutes ago, at 11:41 UTC
Forecast valid from 20 at 13 UTC to 20 at 22 UTC
Wind 15 kt from the South/Southwest with gusts up to 25 kt
Visibility 10 km or more
Few clouds at a height of 2000 ft
Scattered clouds at a height of 3000 ft

TAF: EBFN 201141Z 2013/2022 21015G25KT 9999 FEW020 SCT030

Weather observations and forecasts of more than 4000 airports (METAR and TAF reports).

The available stations are represented by yellow and red dots on the map.

Hover mouse over dot to see the name of the station.

Then click to see weather observations and forecasts.

To change the map : click on the green buttons with a black cross to zoom in, on the green button with a dash to zoom out, or on the green arrows for adjacent maps.


METAR-TAF: